Latest Weather Observations for Mackay Airport

IDQ60801

Issued at 11:02 pm EST Monday 6 July 2015 (issued every 30 minutes, with the page automatically refreshed every 10 minutes)

About weather observations | Map of weather stations | Latest weather observations for QLD | Other Formats
Station Details ID: 033045 Name: MACKAY AERO Lat: -21.17 Lon: 149.18 Height: 4.7 m
Data from the previous 72 hours. | See also: Recent months at Mackay Airport
Date/Time
EST
Temp
°C
App
Temp
°C
Dew
Point
Rel
Hum
%
Delta-T
°C
Wind Press
QNH
hPa
Press
MSL
hPa
Rain
since 9 am
mm
Dir
 
Spd
km/h
Gust
km/h
Spd
kts
Gust
kts
06/11:00pm 14.0 13.6 13.1 94 0.5 WSW 7 9 4 5 1017.9 1017.9 0.0
06/10:59pm 14.1 13.7 13.1 94 0.5 WSW 7 9 4 5 1017.9 1017.9 0.0
06/10:30pm 14.4 14.1 13.4 94 0.6 WSW 7 9 4 5 1018.0 1018.0 0.0
06/10:00pm 14.4 13.7 13.1 92 0.7 WSW 9 11 5 6 1018.1 1018.1 0.0
06/09:30pm 15.2 14.8 14.2 94 0.6 WSW 9 11 5 6 1017.9 1017.9 0.0
06/09:00pm 15.4 14.7 14.3 93 0.6 SSW 11 13 6 7 1017.8 1017.8 0.0
06/08:30pm 16.1 15.2 14.8 92 0.7 SSW 13 15 7 8 1017.8 1017.8 0.0
06/08:00pm 17.9 17.7 14.8 82 1.8 E 9 11 5 6 1017.6 1017.6 0.0
06/07:30pm 18.7 18.9 15.8 83 1.7 E 9 11 5 6 1017.5 1017.5 0.0
06/07:00pm 19.0 19.0 16.2 84 1.7 E 11 13 6 7 1017.2 1017.2 0.0
06/06:30pm 19.6 19.2 16.3 81 2.0 E 13 17 7 9 1016.8 1016.8 0.0
06/06:00pm 19.9 19.3 16.7 82 1.9 ESE 15 17 8 9 1016.5 1016.5 0.0
06/05:30pm 20.2 19.2 16.6 80 2.2 E 17 20 9 11 1016.2 1016.2 0.0
06/05:00pm 20.9 19.7 17.1 79 2.3 ESE 19 24 10 13 1016.1 1016.1 0.0
06/04:30pm 21.6 20.5 17.8 79 2.4 E 20 26 11 14 1016.0 1016.0 0.0
06/04:00pm 21.7 20.8 17.7 78 2.5 E 19 24 10 13 1015.9 1015.9 0.0
06/03:30pm 21.6 20.5 17.4 77 2.6 ESE 19 24 10 13 1016.0 1016.0 0.0
06/03:00pm 21.9 21.1 17.9 78 2.5 E 19 24 10 13 1016.1 1016.1 0.0
06/02:30pm 22.0 21.3 18.2 79 2.4 E 19 22 10 12 1016.4 1016.4 0.0
06/02:00pm 22.3 21.6 18.3 78 2.5 E 19 22 10 12 1016.6 1016.6 0.0
06/01:30pm 22.3 21.3 17.9 76 2.7 ESE 20 24 11 13 1016.8 1016.8 0.0
06/01:00pm 22.2 21.1 17.8 76 2.7 ESE 20 24 11 13 1017.2 1017.2 0.0
06/12:30pm 22.2 21.0 17.1 73 3.1 ESE 19 24 10 13 1017.7 1017.7 0.0
06/12:00pm 22.6 21.6 17.5 73 3.1 ESE 19 24 10 13 1018.2 1018.2 0.0
06/11:30am 22.9 21.7 17.1 70 3.6 SE 19 22 10 12 1018.6 1018.6 0.0
06/11:00am 22.3 20.9 16.6 70 3.5 ESE 19 22 10 12 1018.9 1018.9 0.0
06/10:00am 22.0 22.3 17.8 77 2.6 SE 13 19 7 10 1019.4 1019.4 0.0
06/09:30am 20.8 20.7 17.0 79 2.3 SSE 13 20 7 11 1019.4 1019.4 0.0
06/09:00am 19.4 19.6 16.8 85 1.6 SSW 11 15 6 8 1019.5 1019.5 0.0
06/08:30am 18.3 18.5 16.8 91 0.9 SSW 11 13 6 7 1019.3 1019.3 0.0
06/08:00am 16.7 16.9 15.7 94 0.6 WSW 9 11 5 6 1019.0 1019.0 0.0
06/07:30am 15.3 15.1 14.8 97 0.3 WSW 9 9 5 5 1018.8 1018.8 0.0
06/07:00am 13.9 13.6 13.4 97 0.3 WSW 7 11 4 6 1018.7 1018.7 0.0
06/06:30am 13.1 12.7 12.5 96 0.3 WSW 6 7 3 4 1018.5 1018.5 0.0
06/06:00am 13.1 12.2 12.5 96 0.3 WSW 9 11 5 6 1018.3 1018.3 0.0
06/05:30am 13.5 13.0 12.7 95 0.4 WSW 7 9 4 5 1018.2 1018.2 0.0
06/05:00am 14.2 14.0 13.6 96 0.3 WSW 7 9 4 5 1018.1 1018.1 0.0
06/04:30am 14.4 13.5 13.8 96 0.3 WSW 11 13 6 7 1018.2 1018.2 0.0
06/04:00am 14.4 13.9 13.8 96 0.3 SW 9 11 5 6 1018.3 1018.3 0.0
06/03:30am 14.9 14.1 14.1 95 0.5 SW 11 11 6 6 1018.3 1018.3 0.0
06/03:00am 15.4 15.3 14.9 97 0.3 WSW 9 9 5 5 1018.4 1018.4 0.0
06/02:30am 14.5 13.7 13.9 96 0.3 SW 11 13 6 7 1018.4 1018.4 0.0
06/02:00am 15.3 15.4 14.5 95 0.5 SSW 7 11 4 6 1018.4 1018.4 0.0
06/01:30am 15.3 14.9 14.2 93 0.6 SSW 9 11 5 6 1018.8 1018.8 0.0
06/01:00am 16.3 16.3 15.3 94 0.6 SSW 9 11 5 6 1019.1 1019.1 0.0
06/12:30am 16.6 16.7 15.5 93 0.6 S 9 11 5 6 1019.4 1019.4 0.0
06/12:00am 16.6 16.7 15.5 93 0.6 S 9 11 5 6 1019.5 1019.5 0.0
 
Date/Time
EST
Temp
°C
App
Temp
°C
Dew
Point
Rel
Hum
%
Delta-T
°C
Wind Press
QNH
hPa
Press
MSL
hPa
Rain
since 9 am
mm
Dir
 
Spd
km/h
Gust
km/h
Spd
kts
Gust
kts
05/11:30pm 16.3 15.9 15.2 93 0.6 SSW 11 13 6 7 1019.6 1019.6 0.0
05/11:00pm 16.6 15.9 15.5 93 0.6 SSW 13 13 7 7 1019.9 1019.9 0.0
05/10:30pm 16.4 16.1 15.4 94 0.6 SSW 11 13 6 7 1019.9 1019.9 0.0
05/10:00pm 16.2 15.8 15.1 93 0.6 SSW 11 13 6 7 1019.9 1019.9 0.0
05/09:30pm 16.6 16.2 15.3 92 0.8 SSW 11 15 6 8 1019.9 1019.9 0.0
05/09:00pm 16.9 16.2 15.4 91 0.9 SSW 13 15 7 8 1019.9 1019.9 0.0
05/08:30pm 17.4 16.8 15.7 90 1.0 SSW 13 15 7 8 1019.8 1019.8 0.0
05/08:00pm 18.0 17.9 16.0 88 1.2 SSW 11 13 6 7 1019.6 1019.6 0.0
05/07:30pm 19.0 19.1 16.4 85 1.6 S 11 13 6 7 1019.4 1019.4 0.0
05/07:00pm 20.1 19.4 17.3 84 1.7 SE 17 20 9 11 1018.9 1018.9 0.0
05/06:30pm 20.1 18.9 17.1 83 1.8 ESE 19 20 10 11 1018.5 1018.5 0.0
05/06:00pm 19.7 18.5 17.1 85 1.6 ESE 19 22 10 12 1018.2 1018.2 0.0
05/05:30pm 19.8 18.2 16.4 81 2.0 ESE 20 26 11 14 1018.2 1018.2 0.0
05/05:00pm 20.6 18.2 16.4 77 2.5 SE 24 28 13 15 1018.2 1018.2 0.0
05/04:30pm 21.1 18.7 16.5 75 2.8 SE 24 30 13 16 1018.2 1018.2 0.0
05/04:00pm 21.4 19.6 16.1 72 3.2 SE 20 28 11 15 1018.2 1018.2 0.0
05/03:30pm 21.3 18.7 16.0 72 3.2 SE 24 30 13 16 1018.3 1018.3 0.0
05/03:00pm 21.4 18.4 15.9 71 3.3 ESE 26 30 14 16 1018.3 1018.3 0.0
05/02:30pm 21.4 18.9 16.1 72 3.2 ESE 24 30 13 16 1018.4 1018.4 0.0
05/02:00pm 21.8 19.7 17.2 75 2.8 ESE 24 30 13 16 1018.6 1018.6 0.0
05/01:30pm 21.9 19.2 16.6 72 3.2 SE 26 30 14 16 1018.7 1018.7 0.0
05/01:00pm 21.8 19.3 17.2 75 2.8 SE 26 32 14 17 1019.1 1019.1 0.0
05/12:30pm 21.8 18.7 17.4 76 2.7 SE 30 35 16 19 1019.5 1019.5 0.0
05/12:00pm 21.7 19.2 17.1 75 2.8 SE 26 32 14 17 1020.0 1020.0 0.0
05/11:30am 22.1 19.3 17.2 74 3.0 SE 28 35 15 19 1020.2 1020.2 0.0
05/11:00am 21.8 18.7 16.5 72 3.2 SE 28 35 15 19 1020.5 1020.5 0.0
05/10:30am 21.8 19.4 16.5 72 3.2 SE 24 30 13 16 1020.7 1020.7 0.0
05/10:00am 21.6 20.0 17.4 77 2.6 SE 22 28 12 15 1020.7 1020.7 0.0
05/09:30am 20.7 18.8 16.7 78 2.4 SSE 22 28 12 15 1020.6 1020.6 0.0
05/09:00am 19.3 17.4 15.8 80 2.1 SSE 20 28 11 15 1020.6 1020.6 0.2
05/08:30am 18.1 17.7 16.3 89 1.1 SSE 13 17 7 9 1020.4 1020.4 0.2
05/08:00am 15.9 16.2 15.1 95 0.5 SW 7 9 4 5 1020.2 1020.2 0.2
05/07:30am 14.1 13.5 13.5 96 0.3 SW 9 9 5 5 1020.0 1020.0 0.2
05/07:00am 13.5 12.7 12.9 96 0.3 SW 9 9 5 5 1019.6 1019.6 0.2
05/06:30am 13.9 12.5 13.4 97 0.3 SW 13 15 7 8 1019.5 1019.5 0.2
05/06:00am 14.1 12.5 13.8 98 0.2 SW 15 17 8 9 1019.2 1019.2 0.2
05/05:30am 13.4 12.2 12.9 97 0.3 SW 11 13 6 7 1018.9 1018.9 0.2
05/05:14am 12.9 11.6 12.4 97 0.3 SSW 11 13 6 7 1018.7 1018.7 0.2
05/05:00am 13.9 13.3 13.4 97 0.3 SSW 9 9 5 5 1018.5 1018.5 0.2
05/04:59am 13.9 13.3 13.4 97 0.3 SSW 9 9 5 5 1018.5 1018.5 0.2
05/04:30am 13.6 12.8 12.8 95 0.4 S 9 11 5 6 1018.3 1018.3 0.2
05/04:00am 15.1 14.4 14.3 95 0.5 S 11 13 6 7 1018.5 1018.5 0.2
05/03:30am 15.5 14.9 14.7 95 0.5 SSW 11 13 6 7 1018.6 1018.6 0.2
05/03:00am 15.4 14.3 14.3 93 0.6 SSW 13 15 7 8 1018.5 1018.5 0.2
05/02:30am 16.4 16.4 15.3 93 0.6 S 9 13 5 7 1018.7 1018.7 0.2
05/02:00am 16.7 16.5 15.6 93 0.6 SSW 11 13 6 7 1019.0 1019.0 0.0
05/01:30am 17.0 16.1 15.9 93 0.6 SW 15 17 8 9 1019.1 1019.1 0.0
05/01:24am 16.9 16.0 15.8 93 0.6 SW 15 17 8 9 1019.2 1019.2 0.0
05/01:09am 17.1 17.4 16.0 93 0.6 S 9 13 5 7 1019.7 1019.7 0.0
05/01:00am 17.0 17.3 15.9 93 0.6 SW 9 9 5 5 1019.9 1019.9 0.0
05/12:30am 17.2 18.4 15.9 92 0.8 NNW 4 11 2 6 1020.1 1020.1 0.0
05/12:00am 15.9 15.7 14.8 93 0.6 S 9 11 5 6 1020.0 1020.0 0.0
 
Date/Time
EST
Temp
°C
App
Temp
°C
Dew
Point
Rel
Hum
%
Delta-T
°C
Wind Press
QNH
hPa
Press
MSL
hPa
Rain
since 9 am
mm
Dir
 
Spd
km/h
Gust
km/h
Spd
kts
Gust
kts
04/11:30pm 15.0 15.1 13.9 93 0.6 S 6 9 3 5 1020.3 1020.3 0.0
04/11:00pm 15.4 15.7 14.4 94 0.6 S 6 9 3 5 1020.1 1020.1 0.0
04/10:30pm 15.0 14.8 13.7 92 0.7 S 7 11 4 6 1020.2 1020.2 0.0
04/10:00pm 15.5 14.7 14.0 91 0.8 S 11 13 6 7 1020.3 1020.3 0.0
04/09:30pm 16.3 15.3 14.7 90 0.9 SSW 13 17 7 9 1020.4 1020.4 0.0
04/09:00pm 16.7 15.8 14.9 89 1.0 S 13 15 7 8 1020.4 1020.4 0.0
04/08:30pm 17.6 16.8 15.2 86 1.4 S 13 17 7 9 1020.4 1020.4 0.0
04/08:00pm 18.0 17.8 15.6 86 1.4 S 11 15 6 8 1020.3 1020.3 0.0
04/07:30pm 18.1 17.8 15.5 85 1.5 S 11 15 6 8 1020.1 1020.1 0.0
04/07:00pm 18.3 18.4 15.6 84 1.6 S 9 11 5 6 1019.7 1019.7 0.0
04/06:30pm 18.6 18.2 15.3 81 1.9 SSE 11 13 6 7 1019.4 1019.4 0.0
04/06:00pm 19.0 18.3 15.3 79 2.2 SSE 13 17 7 9 1019.2 1019.2 0.0
04/05:30pm 19.4 18.0 15.5 78 2.3 SSE 17 20 9 11 1018.9 1018.9 0.0
04/05:00pm 19.7 17.3 15.4 76 2.5 SE 22 30 12 16 1018.8 1018.8 0.0
04/04:30pm 20.2 17.2 15.8 76 2.6 SE 26 32 14 17 1018.6 1018.6 0.0
04/04:00pm 20.3 17.9 15.5 74 2.8 SE 22 30 12 16 1018.4 1018.4 0.0
04/03:30pm 21.7 19.2 16.2 71 3.3 SE 24 28 13 15 1018.3 1018.3 0.0
04/03:00pm 20.6 16.4 15.8 74 2.9 SE 32 37 17 20 1018.3 1018.3 0.0
04/02:30pm 21.9 19.0 16.0 69 3.6 SE 26 32 14 17 1018.3 1018.3 0.0
04/02:00pm 22.0 19.7 15.8 68 3.7 SE 22 30 12 16 1018.4 1018.4 0.0
04/01:30pm 21.4 18.7 14.6 65 4.0 SSE 22 28 12 15 1018.6 1018.6 0.0
04/01:00pm 21.0 17.9 14.6 67 3.7 SSE 24 30 13 16 1019.1 1019.1 0.0
04/12:30pm 21.0 17.3 14.9 68 3.6 SE 28 32 15 17 1019.8 1019.8 0.0
04/12:00pm 21.6 17.3 14.5 64 4.2 SE 30 37 16 20 1020.1 1020.1 0.0
04/11:30am 21.6 18.6 14.7 65 4.1 SE 24 33 13 18 1020.4 1020.4 0.0
04/11:00am 20.6 16.8 13.6 64 4.0 SE 26 35 14 19 1020.5 1020.5 0.0
04/10:30am 20.9 16.7 13.4 62 4.3 SE 28 35 15 19 1020.4 1020.4 0.0
04/10:00am 20.3 15.4 12.5 61 4.4 SE 30 39 16 21 1020.4 1020.4 0.0
04/09:30am 19.4 14.1 11.2 59 4.5 SSE 30 39 16 21 1020.3 1020.3 0.0
04/09:00am 18.6 14.0 11.2 62 4.0 SSE 26 35 14 19 1020.3 1020.3 0.0
04/08:30am 17.4 14.8 11.9 70 3.0 S 17 24 9 13 1020.3 1020.3 0.0
04/08:00am 14.1 13.2 11.3 83 1.5 SW 7 11 4 6 1020.1 1020.1 0.0
04/07:30am 12.9 11.5 10.8 87 1.1 WSW 9 11 5 6 1019.9 1019.9 0.0
04/07:00am 12.0 10.5 10.6 91 0.7 WSW 9 11 5 6 1019.8 1019.8 0.0
04/06:30am 11.4 9.7 10.0 91 0.7 W 9 11 5 6 1019.5 1019.5 0.0
04/06:00am 11.1 9.4 9.7 91 0.7 WSW 9 11 5 6 1019.4 1019.4 0.0
04/05:30am 11.2 9.1 9.8 91 0.7 WSW 11 13 6 7 1019.2 1019.2 0.0
04/05:00am 11.0 9.2 9.6 91 0.7 WSW 9 11 5 6 1019.2 1019.2 0.0
04/04:30am 10.3 8.7 8.9 91 0.7 WSW 7 11 4 6 1019.3 1019.3 0.0
04/04:00am 10.5 8.3 9.3 92 0.6 WSW 11 11 6 6 1019.3 1019.3 0.0
04/03:30am 9.9 7.9 8.7 92 0.6 W 9 13 5 7 1019.2 1019.2 0.0
04/03:00am 9.7 7.7 8.5 92 0.6 WSW 9 13 5 7 1019.3 1019.3 0.0
04/02:30am 9.5 7.8 8.3 92 0.6 WSW 7 9 4 5 1019.6 1019.6 0.0
04/02:00am 9.7 7.6 8.1 90 0.8 WSW 9 15 5 8 1019.7 1019.7 0.0
04/01:30am 10.1 8.0 8.4 89 0.8 W 9 13 5 7 1020.3 1020.3 0.0
04/01:00am 10.7 8.8 9.0 89 0.8 WSW 9 11 5 6 1020.6 1020.6 0.0
04/12:30am 10.9 8.2 9.0 88 0.9 SW 13 15 7 8 1020.8 1020.8 0.0
04/12:00am 10.9 8.0 9.5 91 0.7 SW 15 17 8 9 1021.1 1021.1 0.0
 
Date/Time
EST
Temp
°C
App
Temp
°C
Dew
Point
Rel
Hum
%
Delta-T
°C
Wind Press
QNH
hPa
Press
MSL
hPa
Rain
since 9 am
mm
Dir
 
Spd
km/h
Gust
km/h
Spd
kts
Gust
kts
03/11:30pm 11.3 8.7 9.4 88 1.0 SSW 13 17 7 9 1021.5 1021.5 0.0

Other Formats:

Comma delimited format used in spreadsheet applications
http://www.bom.gov.au/fwo/IDQ60801/IDQ60801.95367.axf

JavaScript Object Notation format (JSON) in row-major order
http://www.bom.gov.au/fwo/IDQ60801/IDQ60801.95367.json